createdAt,value
2022-08-26T00:01:54.444Z,78.55
2022-08-26T00:04:25.297Z,79.52
2022-08-26T00:06:55.686Z,79.86
2022-08-26T00:09:24.949Z,80.04
2022-08-26T00:11:54.016Z,80.80
2022-08-26T00:14:25.932Z,81.67
2022-08-26T00:16:56.120Z,81.95
2022-08-26T00:19:23.905Z,82.50
2022-08-26T00:21:52.318Z,83.46
2022-08-26T00:24:21.833Z,83.36
2022-08-26T00:26:49.648Z,83.72
2022-08-26T00:29:17.984Z,84.88
2022-08-26T00:31:45.928Z,85.30
2022-08-26T00:34:14.301Z,84.27
2022-08-26T00:36:43.611Z,84.49
2022-08-26T00:39:11.777Z,84.44
2022-08-26T00:41:40.260Z,83.61
2022-08-26T00:44:08.828Z,84.43
2022-08-26T00:46:39.994Z,84.31
2022-08-26T00:49:26.447Z,84.12
2022-08-26T00:51:58.884Z,84.62
2022-08-26T00:54:27.833Z,85.84
2022-08-26T00:56:59.930Z,84.29
2022-08-26T00:59:29.318Z,84.72
2022-08-26T01:02:02.760Z,83.71
2022-08-26T01:04:31.902Z,83.93
2022-08-26T01:07:00.108Z,84.30
2022-08-26T01:09:46.367Z,84.42
2022-08-26T01:12:14.455Z,85.15
2022-08-26T01:14:41.927Z,84.50
2022-08-26T01:17:15.252Z,84.48
2022-08-26T01:19:49.355Z,85.00
2022-08-26T01:22:28.175Z,84.86
2022-08-26T01:24:59.175Z,84.55
2022-08-26T01:27:32.519Z,85.32
2022-08-26T01:30:01.309Z,85.11
2022-08-26T01:32:32.263Z,85.28
2022-08-26T01:34:59.892Z,85.83
2022-08-26T01:37:32.617Z,85.35
2022-08-26T01:40:00.577Z,85.05
2022-08-26T01:42:28.519Z,85.11
2022-08-26T01:44:59.981Z,85.93
2022-08-26T01:47:30.261Z,86.63
2022-08-26T01:50:00.309Z,86.37
2022-08-26T01:52:30.469Z,86.76
2022-08-26T01:54:58.796Z,87.97
2022-08-26T01:57:26.784Z,88.68
2022-08-26T01:59:56.534Z,88.33
2022-08-26T02:02:24.589Z,88.13
2022-08-26T02:04:56.821Z,88.00
2022-08-26T02:07:26.527Z,87.37
2022-08-26T02:09:55.099Z,86.22
2022-08-26T02:12:22.963Z,87.92
2022-08-26T02:14:53.771Z,86.51
2022-08-26T02:17:25.902Z,86.31
2022-08-26T02:19:53.556Z,87.45
2022-08-26T02:22:24.579Z,86.47
2022-08-26T02:24:56.243Z,86.10
2022-08-26T02:27:32.492Z,86.20
2022-08-26T02:30:20.802Z,87.32
2022-08-26T02:32:49.770Z,87.26
2022-08-26T02:35:20.345Z,87.43
2022-08-26T02:37:49.516Z,87.32
2022-08-26T02:40:24.530Z,87.14
2022-08-26T02:42:52.830Z,87.25
2022-08-26T02:45:23.227Z,88.13
2022-08-26T02:47:52.367Z,90.68
2022-08-26T02:50:20.278Z,88.99
2022-08-26T02:52:48.534Z,87.95
2022-08-26T02:55:16.559Z,84.77
2022-08-26T02:57:44.230Z,84.00
2022-08-26T03:00:14.637Z,82.84
2022-08-26T03:02:42.144Z,86.30
2022-08-26T03:05:11.371Z,83.34
2022-08-26T03:07:38.884Z,82.38
2022-08-26T03:10:08.700Z,81.97
2022-08-26T03:12:37.083Z,82.83
2022-08-26T03:15:16.430Z,82.72
2022-08-26T03:17:50.350Z,82.37
2022-08-26T03:20:18.594Z,86.38
2022-08-26T03:22:46.433Z,86.51
2022-08-26T03:25:16.514Z,89.17
2022-08-26T03:27:44.015Z,91.77
2022-08-26T03:30:32.754Z,92.65
2022-08-26T03:33:00.693Z,92.99
2022-08-26T03:35:28.436Z,90.72
2022-08-26T03:37:56.054Z,90.96
2022-08-26T03:40:23.647Z,90.65
2022-08-26T03:42:56.805Z,87.97
2022-08-26T03:45:24.478Z,88.51
2022-08-26T03:47:52.010Z,87.97
2022-08-26T03:50:22.589Z,84.93
2022-08-26T03:52:52.079Z,82.34
2022-08-26T03:55:23.719Z,83.79
2022-08-26T03:57:52.416Z,80.63
2022-08-26T04:00:20.494Z,79.62
2022-08-26T04:02:51.262Z,85.35
2022-08-26T04:05:22.725Z,86.13
2022-08-26T04:07:51.101Z,87.25
2022-08-26T04:10:22.122Z,88.24
2022-08-26T04:12:58.976Z,90.30
2022-08-26T04:15:27.175Z,89.68
2022-08-26T04:17:55.800Z,86.08
2022-08-26T04:20:23.898Z,85.69
2022-08-26T04:22:51.402Z,83.70
2022-08-26T04:25:18.835Z,81.91
2022-08-26T04:27:48.480Z,81.48
2022-08-26T04:30:16.645Z,81.94
2022-08-26T04:32:44.305Z,84.54
2022-08-26T04:35:12.000Z,83.26
2022-08-26T04:37:39.391Z,82.79
2022-08-26T04:40:11.207Z,84.11
2022-08-26T04:42:38.968Z,87.10
2022-08-26T04:45:10.172Z,82.37
2022-08-26T04:47:39.451Z,86.20
2022-08-26T04:50:08.386Z,81.95
2022-08-26T04:52:38.885Z,81.84
2022-08-26T04:55:08.612Z,83.14
2022-08-26T04:57:36.443Z,83.34
2022-08-26T05:00:06.305Z,79.59
2022-08-26T05:02:34.293Z,81.46
2022-08-26T05:05:02.197Z,81.68
2022-08-26T05:07:31.221Z,82.08
2022-08-26T05:09:59.313Z,82.25
2022-08-26T05:12:28.654Z,81.38
2022-08-26T05:14:56.403Z,82.22
2022-08-26T05:17:24.849Z,79.82
2022-08-26T05:19:52.328Z,80.32
2022-08-26T05:22:20.291Z,81.92
2022-08-26T05:24:47.850Z,82.96
2022-08-26T05:27:15.316Z,81.97
2022-08-26T05:29:43.109Z,80.59
2022-08-26T05:32:11.798Z,80.50
2022-08-26T05:34:39.339Z,80.47
2022-08-26T05:37:10.667Z,79.08
2022-08-26T05:39:41.272Z,81.32
2022-08-26T05:42:11.151Z,77.38
2022-08-26T05:44:55.493Z,79.36
2022-08-26T05:47:25.510Z,79.40
2022-08-26T05:49:53.181Z,78.53
2022-08-26T05:52:20.658Z,75.99
2022-08-26T05:54:48.351Z,73.73
2022-08-26T05:57:16.169Z,72.43
2022-08-26T05:59:46.022Z,73.59
2022-08-26T06:02:13.737Z,74.70
2022-08-26T06:04:41.476Z,72.47
2022-08-26T06:07:11.936Z,73.72
2022-08-26T06:09:41.532Z,74.37
2022-08-26T06:12:09.164Z,73.37
2022-08-26T06:14:36.579Z,70.81
2022-08-26T06:17:04.625Z,71.14
2022-08-26T06:19:32.967Z,70.65
2022-08-26T06:22:23.356Z,70.16
2022-08-26T06:25:10.103Z,69.43
2022-08-26T06:27:37.622Z,69.51
2022-08-26T06:30:05.664Z,67.01
2022-08-26T06:32:33.739Z,68.19
2022-08-26T06:35:01.511Z,66.42
2022-08-26T06:37:29.573Z,66.35
2022-08-26T06:39:57.034Z,65.10
2022-08-26T06:42:25.132Z,63.14
2022-08-26T06:44:52.877Z,61.48
2022-08-26T06:47:20.571Z,60.84
2022-08-26T06:49:48.345Z,59.24
2022-08-26T06:52:23.059Z,58.30
2022-08-26T06:54:51.912Z,54.88
2022-08-26T06:57:20.719Z,57.02
2022-08-26T06:59:48.801Z,57.00
2022-08-26T07:02:19.607Z,55.96
2022-08-26T07:04:48.638Z,53.18
2022-08-26T07:07:18.609Z,50.17
2022-08-26T07:09:52.456Z,50.30
2022-08-26T07:12:22.994Z,49.25
2022-08-26T07:14:54.133Z,48.00
2022-08-26T07:17:24.981Z,47.38
2022-08-26T07:19:53.647Z,47.26
2022-08-26T07:22:21.036Z,46.61
2022-08-26T07:24:48.566Z,46.74
2022-08-26T07:27:16.879Z,45.87
2022-08-26T07:29:45.047Z,44.69
2022-08-26T07:32:14.441Z,45.18
2022-08-26T07:34:42.818Z,44.91
2022-08-26T07:37:10.991Z,45.01
2022-08-26T07:39:40.390Z,45.36
2022-08-26T07:42:09.426Z,45.65
2022-08-26T07:44:37.841Z,45.38
2022-08-26T07:47:24.078Z,44.14
2022-08-26T07:49:55.614Z,41.68
2022-08-26T07:52:26.893Z,39.13
2022-08-26T07:54:58.164Z,36.26
2022-08-26T07:57:26.795Z,33.84
2022-08-26T07:59:55.238Z,32.14
2022-08-26T08:02:24.761Z,30.72
2022-08-26T08:04:53.414Z,28.78
2022-08-26T08:07:21.639Z,28.34
2022-08-26T08:10:09.931Z,27.35
2022-08-26T08:12:40.813Z,26.66
2022-08-26T08:15:09.922Z,26.27
2022-08-26T08:17:37.405Z,26.12
2022-08-26T08:20:07.173Z,25.27
2022-08-26T08:22:35.444Z,25.18
2022-08-26T08:25:06.230Z,25.63
2022-08-26T08:27:36.959Z,25.22
2022-08-26T08:30:05.720Z,24.95
2022-08-26T08:32:33.140Z,26.36
2022-08-26T08:35:02.556Z,27.02
2022-08-26T08:37:38.372Z,26.31
2022-08-26T08:40:08.120Z,26.91
2022-08-26T08:45:36.564Z,27.42
2022-08-26T08:48:27.866Z,28.94
2022-08-26T08:51:18.187Z,28.42
2022-08-26T08:53:47.926Z,28.74
2022-08-26T08:56:29.107Z,28.76
2022-08-26T08:59:02.281Z,28.34
2022-08-26T09:01:42.315Z,30.52
2022-08-26T09:04:37.691Z,29.95
2022-08-26T09:07:09.180Z,29.91
2022-08-26T09:09:46.566Z,30.71
2022-08-26T09:12:29.406Z,32.03
2022-08-26T09:15:03.981Z,29.89
2022-08-26T09:18:06.060Z,32.22
2022-08-26T09:20:56.854Z,31.66
2022-08-26T09:23:25.349Z,32.09
2022-08-26T09:25:55.791Z,31.57
2022-08-26T09:28:25.720Z,31.27
2022-08-26T09:31:13.434Z,31.46
2022-08-26T09:33:41.589Z,33.20
2022-08-26T09:36:14.013Z,32.20
2022-08-26T09:38:42.649Z,32.50
2022-08-26T09:41:35.388Z,31.64
2022-08-26T09:44:14.715Z,30.30
2022-08-26T09:46:47.826Z,30.65
2022-08-26T09:49:31.616Z,31.56
2022-08-26T09:52:23.512Z,30.06
2022-08-26T09:55:06.508Z,30.88
2022-08-26T09:57:37.234Z,30.23
2022-08-26T10:00:37.745Z,29.79
2022-08-26T10:03:10.789Z,29.92
2022-08-26T10:05:55.000Z,29.60
2022-08-26T10:08:34.864Z,29.80
2022-08-26T10:11:11.135Z,28.98
2022-08-26T10:13:43.040Z,29.13
2022-08-26T10:16:15.603Z,27.93
2022-08-26T10:18:49.324Z,28.55
2022-08-26T10:21:26.147Z,28.00
2022-08-26T10:23:56.912Z,28.35
2022-08-26T10:26:28.280Z,27.52
2022-08-26T10:29:22.099Z,27.61
2022-08-26T10:32:14.701Z,26.99
2022-08-26T10:34:42.730Z,27.58
2022-08-26T10:37:17.910Z,27.34
2022-08-26T10:39:58.790Z,26.16
2022-08-26T10:42:33.162Z,25.21
2022-08-26T10:45:17.166Z,25.11
2022-08-26T10:47:59.980Z,25.12
2022-08-26T10:50:33.439Z,24.35
2022-08-26T10:53:17.862Z,24.46
2022-08-26T10:55:51.820Z,24.27
2022-08-26T10:58:54.408Z,22.46
2022-08-26T11:01:41.036Z,24.53
2022-08-26T11:04:22.409Z,24.30
2022-08-26T11:07:28.510Z,23.91
2022-08-26T11:10:30.753Z,22.96
2022-08-26T11:13:03.862Z,21.56
2022-08-26T11:15:31.712Z,22.60
2022-08-26T11:18:02.377Z,22.06
2022-08-26T11:20:37.459Z,22.57
2022-08-26T11:23:22.474Z,22.85
2022-08-26T11:26:01.938Z,22.88
2022-08-26T11:28:37.921Z,22.68
2022-08-26T11:31:09.652Z,21.78
2022-08-26T11:33:43.966Z,21.94
2022-08-26T11:36:28.189Z,22.27
2022-08-26T11:38:55.882Z,22.23
2022-08-26T11:41:29.128Z,22.65
2022-08-26T11:43:59.541Z,21.69
2022-08-26T11:46:31.430Z,21.31
2022-08-26T11:49:06.458Z,21.83
2022-08-26T11:51:40.063Z,22.18
2022-08-26T11:54:14.512Z,22.27
2022-08-26T11:56:45.968Z,22.51
2022-08-26T11:59:19.628Z,21.17
2022-08-26T12:01:50.225Z,21.76
2022-08-26T12:04:38.852Z,22.66
2022-08-26T12:07:08.822Z,22.28
2022-08-26T12:09:39.093Z,23.06
2022-08-26T12:12:18.362Z,22.00
2022-08-26T12:14:47.021Z,23.10
2022-08-26T12:17:20.045Z,23.08
2022-08-26T12:19:50.551Z,23.01
2022-08-26T12:22:29.471Z,22.11
2022-08-26T12:25:04.889Z,21.01
2022-08-26T12:27:35.160Z,21.71
2022-08-26T12:30:14.033Z,20.96
2022-08-26T12:32:51.101Z,20.57
2022-08-26T12:35:28.882Z,21.10
2022-08-26T12:37:57.724Z,20.96
2022-08-26T12:40:31.217Z,21.54
2022-08-26T12:43:00.792Z,20.96
2022-08-26T12:45:34.156Z,21.52
2022-08-26T12:48:10.081Z,21.00
2022-08-26T12:50:40.746Z,22.74
2022-08-26T12:53:11.432Z,22.70
2022-08-26T12:55:45.440Z,22.43
2022-08-26T12:58:37.490Z,22.12
2022-08-26T13:01:05.040Z,22.99
2022-08-26T13:03:38.681Z,22.52
2022-08-26T13:06:16.079Z,21.24
2022-08-26T13:08:54.349Z,21.77
2022-08-26T13:11:25.552Z,22.24
2022-08-26T13:14:00.707Z,21.75
2022-08-26T13:16:29.835Z,21.79
2022-08-26T13:19:03.044Z,22.57
2022-08-26T13:21:41.362Z,22.10
2022-08-26T13:24:14.436Z,22.95
2022-08-26T13:26:45.775Z,21.58
2022-08-26T13:29:14.021Z,21.73
2022-08-26T13:31:44.041Z,22.42
2022-08-26T13:34:16.116Z,21.20
2022-08-26T13:36:44.833Z,21.68
2022-08-26T13:39:12.791Z,21.76
2022-08-26T13:41:40.899Z,21.62
2022-08-26T13:44:08.458Z,20.65
2022-08-26T13:46:36.549Z,21.28
2022-08-26T13:49:04.518Z,22.99
2022-08-26T13:51:32.628Z,23.54
2022-08-26T13:54:00.579Z,22.49
2022-08-26T13:56:32.127Z,20.78
2022-08-26T13:59:01.201Z,22.78
2022-08-26T14:01:30.910Z,23.24
2022-08-26T14:03:59.318Z,22.37
2022-08-26T14:06:26.884Z,22.95
2022-08-26T14:08:54.747Z,22.82
2022-08-26T14:11:23.195Z,22.92
2022-08-26T14:13:50.871Z,22.11
2022-08-26T14:16:28.109Z,23.26
2022-08-26T14:18:55.888Z,23.86
2022-08-26T14:21:24.154Z,23.43
2022-08-26T14:23:52.563Z,22.13
2022-08-26T14:26:28.384Z,22.20
2022-08-26T14:28:58.950Z,23.50
2022-08-26T14:31:29.331Z,22.75
2022-08-26T14:33:58.815Z,22.02
2022-08-26T14:36:29.486Z,23.15
2022-08-26T14:39:00.848Z,22.75
2022-08-26T14:41:30.101Z,23.27
2022-08-26T14:44:01.523Z,23.64
2022-08-26T14:46:30.833Z,23.38
2022-08-26T14:49:03.629Z,24.13
2022-08-26T14:51:32.864Z,23.74
2022-08-26T14:54:12.678Z,24.63
2022-08-26T14:56:52.461Z,25.62
2022-08-26T14:59:22.967Z,24.52
2022-08-26T15:01:51.323Z,22.79
2022-08-26T15:04:19.887Z,23.97
2022-08-26T15:06:48.239Z,23.83
2022-08-26T15:09:16.138Z,23.84
2022-08-26T15:11:43.745Z,23.10
2022-08-26T15:14:14.775Z,23.21
2022-08-26T15:16:49.016Z,23.55
2022-08-26T15:19:17.449Z,23.58
2022-08-26T15:21:47.312Z,24.21
2022-08-26T15:24:18.255Z,22.78
2022-08-26T15:26:46.801Z,23.67
2022-08-26T15:29:15.926Z,22.89
2022-08-26T15:31:43.611Z,23.09
2022-08-26T15:34:16.460Z,22.84
2022-08-26T15:36:46.406Z,24.04
2022-08-26T15:39:16.155Z,23.68
2022-08-26T15:41:43.636Z,24.37
2022-08-26T15:44:12.140Z,23.97
2022-08-26T15:46:40.256Z,24.93
2022-08-26T15:49:08.029Z,24.83
2022-08-26T15:51:45.639Z,25.15
2022-08-26T15:54:14.848Z,24.11
2022-08-26T15:56:43.589Z,23.45
2022-08-26T15:59:11.927Z,23.04
2022-08-26T16:01:41.375Z,23.71
2022-08-26T16:04:09.735Z,24.16
2022-08-26T16:06:39.213Z,24.34
2022-08-26T16:09:07.519Z,24.46
2022-08-26T16:11:36.051Z,24.30
2022-08-26T16:14:04.787Z,24.71
2022-08-26T16:16:32.512Z,25.45
2022-08-26T16:19:04.268Z,25.70
2022-08-26T16:21:34.672Z,25.82
2022-08-26T16:24:03.664Z,26.18
2022-08-26T16:26:33.167Z,25.73
2022-08-26T16:29:08.622Z,26.06
2022-08-26T16:31:38.032Z,26.01
2022-08-26T16:34:06.698Z,26.86
2022-08-26T16:36:38.296Z,27.34
2022-08-26T16:39:07.970Z,28.21
2022-08-26T16:41:35.712Z,28.15
2022-08-26T16:44:04.097Z,28.57
2022-08-26T16:46:33.677Z,28.88
2022-08-26T16:49:04.136Z,29.91
2022-08-26T16:51:32.636Z,30.49
2022-08-26T16:54:07.276Z,30.89
2022-08-26T16:56:35.719Z,30.97
2022-08-26T16:59:08.114Z,31.02
2022-08-26T17:01:36.108Z,31.88
2022-08-26T17:04:04.063Z,32.23
2022-08-26T17:06:31.729Z,32.09
2022-08-26T17:08:59.599Z,32.56
2022-08-26T17:11:27.139Z,33.39
2022-08-26T17:13:54.536Z,33.20
2022-08-26T17:16:26.668Z,33.76
2022-08-26T17:18:56.685Z,33.88
2022-08-26T17:21:25.539Z,34.19
2022-08-26T17:23:53.060Z,34.42
2022-08-26T17:26:20.634Z,35.01
2022-08-26T17:28:49.124Z,36.02
2022-08-26T17:31:16.744Z,36.05
2022-08-26T17:33:47.738Z,35.73
2022-08-26T17:36:18.198Z,35.96
2022-08-26T17:38:45.660Z,36.19
2022-08-26T17:41:16.432Z,36.91
2022-08-26T17:43:44.581Z,38.94
2022-08-26T17:46:12.834Z,40.16
2022-08-26T17:48:41.089Z,42.14
2022-08-26T17:51:12.166Z,43.00
2022-08-26T17:53:41.320Z,43.02
2022-08-26T17:56:11.780Z,41.82
2022-08-26T17:58:41.574Z,41.97
2022-08-26T18:01:21.028Z,43.57
2022-08-26T18:03:49.561Z,46.32
2022-08-26T18:06:17.181Z,46.26
2022-08-26T18:08:45.069Z,47.10
2022-08-26T18:11:15.498Z,45.55
2022-08-26T18:13:47.164Z,47.50
2022-08-26T18:16:17.130Z,48.73
2022-08-26T18:18:45.530Z,47.44
2022-08-26T18:21:18.903Z,46.50
2022-08-26T18:23:47.693Z,47.50
2022-08-26T18:26:16.812Z,47.91
2022-08-26T18:28:44.212Z,49.17
2022-08-26T18:31:12.356Z,47.95
2022-08-26T18:33:39.800Z,49.06
2022-08-26T18:36:07.568Z,47.67
2022-08-26T18:38:35.298Z,49.69
2022-08-26T18:41:04.277Z,50.02
2022-08-26T18:43:31.677Z,51.63
2022-08-26T18:46:07.682Z,51.26
2022-08-26T18:48:36.956Z,53.21
2022-08-26T18:51:04.891Z,53.70
2022-08-26T18:53:33.029Z,51.31
2022-08-26T18:56:01.940Z,51.39
2022-08-26T18:58:30.806Z,51.16
2022-08-26T19:00:58.611Z,50.25
2022-08-26T19:03:28.747Z,49.81
2022-08-26T19:05:56.484Z,49.93
2022-08-26T19:08:24.381Z,50.41
2022-08-26T19:10:52.244Z,51.74
2022-08-26T19:13:21.395Z,51.71
2022-08-26T19:15:49.279Z,50.96
2022-08-26T19:18:19.783Z,51.34
2022-08-26T19:20:48.079Z,54.06
2022-08-26T19:23:30.873Z,57.77
2022-08-26T19:26:00.005Z,56.44
2022-08-26T19:28:27.982Z,55.75
2022-08-26T19:30:55.648Z,55.80
2022-08-26T19:33:23.581Z,58.88
2022-08-26T19:35:52.013Z,58.48
2022-08-26T19:38:19.791Z,57.15
2022-08-26T19:40:48.330Z,58.67
2022-08-26T19:43:16.028Z,57.23
2022-08-26T19:45:44.729Z,55.50
2022-08-26T19:48:12.851Z,53.98
2022-08-26T19:50:40.687Z,54.31
2022-08-26T19:53:08.373Z,54.80
2022-08-26T19:55:36.515Z,53.49
2022-08-26T19:58:04.141Z,55.67
2022-08-26T20:00:32.341Z,55.43
2022-08-26T20:03:00.507Z,56.07
2022-08-26T20:05:28.392Z,55.37
2022-08-26T20:07:56.348Z,55.05
2022-08-26T20:10:24.380Z,56.56
2022-08-26T20:12:52.675Z,56.04
2022-08-26T20:15:22.119Z,56.31
2022-08-26T20:17:50.026Z,59.23
2022-08-26T20:20:36.239Z,61.19
2022-08-26T20:23:05.540Z,62.85
2022-08-26T20:25:34.686Z,63.28
2022-08-26T20:28:02.617Z,63.75
2022-08-26T20:30:30.622Z,64.26
2022-08-26T20:32:59.186Z,64.85
2022-08-26T20:35:27.487Z,64.77
2022-08-26T20:37:55.351Z,65.76
2022-08-26T20:40:23.422Z,65.25
2022-08-26T20:42:51.905Z,65.09
2022-08-26T20:45:20.293Z,65.06
2022-08-26T20:47:48.797Z,65.55
2022-08-26T20:50:16.332Z,65.24
2022-08-26T20:52:44.080Z,64.02
2022-08-26T20:55:11.674Z,63.07
2022-08-26T20:57:39.182Z,62.26
2022-08-26T21:00:07.878Z,60.71
2022-08-26T21:02:35.765Z,61.04
2022-08-26T21:05:03.439Z,58.91
2022-08-26T21:07:31.363Z,59.61
2022-08-26T21:09:59.293Z,58.63
2022-08-26T21:12:27.164Z,58.74
2022-08-26T21:14:55.003Z,59.46
2022-08-26T21:17:22.997Z,61.30
2022-08-26T21:19:51.502Z,62.24
2022-08-26T21:22:19.987Z,61.44
2022-08-26T21:24:48.343Z,59.90
2022-08-26T21:27:17.646Z,59.87
2022-08-26T21:29:52.627Z,59.96
2022-08-26T21:32:20.678Z,58.33
2022-08-26T21:34:48.322Z,60.19
2022-08-26T21:37:16.750Z,61.65
2022-08-26T21:39:44.546Z,62.26
2022-08-26T21:42:12.731Z,62.49
2022-08-26T21:44:40.564Z,61.91
2022-08-26T21:47:08.553Z,60.61
2022-08-26T21:49:36.209Z,62.12
2022-08-26T21:52:06.703Z,61.93
2022-08-26T21:54:34.303Z,61.47
2022-08-26T21:57:01.845Z,62.82
2022-08-26T21:59:29.658Z,60.62
2022-08-26T22:01:57.990Z,61.58
2022-08-26T22:04:26.130Z,61.99
2022-08-26T22:06:55.345Z,61.06
2022-08-26T22:09:24.846Z,59.67
2022-08-26T22:11:53.281Z,59.01
2022-08-26T22:14:30.447Z,58.60
2022-08-26T22:16:59.156Z,58.87
2022-08-26T22:19:26.762Z,58.49
2022-08-26T22:21:55.096Z,60.61
2022-08-26T22:24:24.058Z,61.18
2022-08-26T22:26:51.953Z,61.17
2022-08-26T22:29:20.077Z,61.72
2022-08-26T22:31:47.873Z,63.56
2022-08-26T22:34:17.407Z,63.22
2022-08-26T22:36:46.998Z,64.33
2022-08-26T22:39:16.801Z,65.52
2022-08-26T22:41:45.331Z,66.40
2022-08-26T22:44:12.983Z,66.33
2022-08-26T22:46:42.042Z,65.59
2022-08-26T22:49:12.537Z,64.66
2022-08-26T22:51:39.988Z,64.63
2022-08-26T22:54:08.014Z,63.35
2022-08-26T22:56:36.424Z,63.95
2022-08-26T22:59:05.448Z,63.70
2022-08-26T23:01:36.314Z,63.89
2022-08-26T23:04:04.915Z,64.76
2022-08-26T23:06:36.230Z,64.78
2022-08-26T23:09:04.737Z,64.49
2022-08-26T23:11:32.204Z,64.11
2022-08-26T23:14:06.269Z,63.40
2022-08-26T23:16:37.847Z,65.09
2022-08-26T23:19:11.964Z,64.64
2022-08-26T23:21:40.233Z,65.40
2022-08-26T23:24:08.212Z,65.30
2022-08-26T23:26:36.655Z,65.03
2022-08-26T23:29:05.481Z,67.02
2022-08-26T23:31:34.103Z,68.89
2022-08-26T23:34:20.048Z,67.33
2022-08-26T23:36:48.224Z,66.19
2022-08-26T23:39:16.040Z,66.38
2022-08-26T23:41:43.601Z,67.57
2022-08-26T23:44:12.373Z,67.59
2022-08-26T23:46:39.947Z,69.82
2022-08-26T23:49:07.384Z,69.04
2022-08-26T23:51:54.052Z,67.78
2022-08-26T23:54:21.492Z,67.86
2022-08-26T23:56:49.550Z,67.64
2022-08-26T23:59:16.967Z,68.72
